sensor_id;sensor_type;location;lat;lon;timestamp;temperature;humidity
5172;DHT22;2605;49.770;9.868;2023-11-22T00:00:07;3.30;99.90
5172;DHT22;2605;49.770;9.868;2023-11-22T00:02:32;3.30;99.90
5172;DHT22;2605;49.770;9.868;2023-11-22T00:04:58;3.20;99.90
5172;DHT22;2605;49.770;9.868;2023-11-22T00:07:23;3.20;99.90
5172;DHT22;2605;49.770;9.868;2023-11-22T00:09:49;3.20;99.90
5172;DHT22;2605;49.770;9.868;2023-11-22T00:12:14;3.10;99.90
5172;DHT22;2605;49.770;9.868;2023-11-22T00:14:43;3.10;99.90
5172;DHT22;2605;49.770;9.868;2023-11-22T00:17:08;3.00;99.90
5172;DHT22;2605;49.770;9.868;2023-11-22T00:19:37;3.00;99.90
5172;DHT22;2605;49.770;9.868;2023-11-22T00:22:04;2.90;99.90
5172;DHT22;2605;49.770;9.868;2023-11-22T00:24:37;2.90;99.90
5172;DHT22;2605;49.770;9.868;2023-11-22T00:27:02;2.80;99.90
5172;DHT22;2605;49.770;9.868;2023-11-22T00:29:28;2.70;99.90
5172;DHT22;2605;49.770;9.868;2023-11-22T00:31:53;2.60;99.90
5172;DHT22;2605;49.770;9.868;2023-11-22T00:34:19;2.40;99.90
5172;DHT22;2605;49.770;9.868;2023-11-22T00:36:44;2.30;99.90
5172;DHT22;2605;49.770;9.868;2023-11-22T00:39:10;2.20;99.90
5172;DHT22;2605;49.770;9.868;2023-11-22T00:41:38;2.10;99.90
5172;DHT22;2605;49.770;9.868;2023-11-22T00:44:04;2.10;99.90
5172;DHT22;2605;49.770;9.868;2023-11-22T00:46:31;2.10;99.90
5172;DHT22;2605;49.770;9.868;2023-11-22T00:48:57;2.10;99.90
5172;DHT22;2605;49.770;9.868;2023-11-22T00:51:23;2.00;99.90
5172;DHT22;2605;49.770;9.868;2023-11-22T00:53:48;2.00;99.90
5172;DHT22;2605;49.770;9.868;2023-11-22T00:56:15;2.00;99.90
5172;DHT22;2605;49.770;9.868;2023-11-22T00:58:40;2.00;99.90
5172;DHT22;2605;49.770;9.868;2023-11-22T01:01:06;2.00;99.90
5172;DHT22;2605;49.770;9.868;2023-11-22T01:03:31;2.00;99.90
5172;DHT22;2605;49.770;9.868;2023-11-22T01:05:57;2.00;99.90
5172;DHT22;2605;49.770;9.868;2023-11-22T01:08:23;2.00;99.90
5172;DHT22;2605;49.770;9.868;2023-11-22T01:10:48;2.10;99.90
5172;DHT22;2605;49.770;9.868;2023-11-22T01:13:14;2.10;99.90
5172;DHT22;2605;49.770;9.868;2023-11-22T01:15:40;2.20;99.90
5172;DHT22;2605;49.770;9.868;2023-11-22T01:18:10;2.20;99.90
5172;DHT22;2605;49.770;9.868;2023-11-22T01:20:35;2.20;99.90
5172;DHT22;2605;49.770;9.868;2023-11-22T01:23:00;2.20;99.90
5172;DHT22;2605;49.770;9.868;2023-11-22T01:25:26;2.30;99.90
5172;DHT22;2605;49.770;9.868;2023-11-22T01:27:53;2.40;99.90
5172;DHT22;2605;49.770;9.868;2023-11-22T01:30:20;2.40;99.90
5172;DHT22;2605;49.770;9.868;2023-11-22T01:32:46;2.50;99.90
5172;DHT22;2605;49.770;9.868;2023-11-22T01:35:11;2.50;99.90
5172;DHT22;2605;49.770;9.868;2023-11-22T01:37:37;2.50;99.90
5172;DHT22;2605;49.770;9.868;2023-11-22T01:40:03;2.50;99.90
5172;DHT22;2605;49.770;9.868;2023-11-22T01:42:29;2.60;99.90
5172;DHT22;2605;49.770;9.868;2023-11-22T01:44:55;2.60;99.90
5172;DHT22;2605;49.770;9.868;2023-11-22T01:47:21;2.60;99.90
5172;DHT22;2605;49.770;9.868;2023-11-22T01:49:47;2.60;99.90
5172;DHT22;2605;49.770;9.868;2023-11-22T01:52:13;2.60;99.90
5172;DHT22;2605;49.770;9.868;2023-11-22T01:54:39;2.60;99.90
5172;DHT22;2605;49.770;9.868;2023-11-22T01:57:05;2.60;99.90
5172;DHT22;2605;49.770;9.868;2023-11-22T01:59:34;2.70;99.90
5172;DHT22;2605;49.770;9.868;2023-11-22T02:02:00;2.70;99.90
5172;DHT22;2605;49.770;9.868;2023-11-22T02:04:25;2.70;99.90
5172;DHT22;2605;49.770;9.868;2023-11-22T02:06:52;2.70;99.90
5172;DHT22;2605;49.770;9.868;2023-11-22T02:09:17;2.70;99.90
5172;DHT22;2605;49.770;9.868;2023-11-22T02:11:44;2.70;99.90
5172;DHT22;2605;49.770;9.868;2023-11-22T02:14:13;2.70;99.90
5172;DHT22;2605;49.770;9.868;2023-11-22T02:16:38;2.70;99.90
5172;DHT22;2605;49.770;9.868;2023-11-22T02:19:06;2.70;99.90
5172;DHT22;2605;49.770;9.868;2023-11-22T02:21:33;2.70;99.90
5172;DHT22;2605;49.770;9.868;2023-11-22T02:23:58;2.80;99.90
5172;DHT22;2605;49.770;9.868;2023-11-22T02:26:24;3.20;99.90
5172;DHT22;2605;49.770;9.868;2023-11-22T02:28:50;2.80;99.90
5172;DHT22;2605;49.770;9.868;2023-11-22T02:31:16;2.70;99.90
5172;DHT22;2605;49.770;9.868;2023-11-22T02:33:41;2.60;99.90
5172;DHT22;2605;49.770;9.868;2023-11-22T02:36:07;2.60;99.90
5172;DHT22;2605;49.770;9.868;2023-11-22T02:38:33;2.50;99.90
5172;DHT22;2605;49.770;9.868;2023-11-22T02:41:01;2.40;99.90
5172;DHT22;2605;49.770;9.868;2023-11-22T02:43:26;2.40;99.90
5172;DHT22;2605;49.770;9.868;2023-11-22T02:45:52;3.10;99.90
5172;DHT22;2605;49.770;9.868;2023-11-22T02:48:17;2.30;99.90
5172;DHT22;2605;49.770;9.868;2023-11-22T02:50:43;2.30;99.90
5172;DHT22;2605;49.770;9.868;2023-11-22T02:53:09;2.30;99.90
5172;DHT22;2605;49.770;9.868;2023-11-22T02:55:35;2.20;99.90
5172;DHT22;2605;49.770;9.868;2023-11-22T02:58:00;2.20;99.90
5172;DHT22;2605;49.770;9.868;2023-11-22T03:00:27;2.10;99.90
5172;DHT22;2605;49.770;9.868;2023-11-22T03:02:54;2.10;99.90
5172;DHT22;2605;49.770;9.868;2023-11-22T03:05:21;2.00;99.90
5172;DHT22;2605;49.770;9.868;2023-11-22T03:07:47;1.90;99.90
5172;DHT22;2605;49.770;9.868;2023-11-22T03:10:13;1.90;99.90
5172;DHT22;2605;49.770;9.868;2023-11-22T03:12:39;1.80;99.90
5172;DHT22;2605;49.770;9.868;2023-11-22T03:15:05;1.80;99.90
5172;DHT22;2605;49.770;9.868;2023-11-22T03:17:31;1.70;99.90
5172;DHT22;2605;49.770;9.868;2023-11-22T03:19:58;1.60;99.90
5172;DHT22;2605;49.770;9.868;2023-11-22T03:22:24;1.50;99.90
5172;DHT22;2605;49.770;9.868;2023-11-22T03:24:53;1.40;99.90
5172;DHT22;2605;49.770;9.868;2023-11-22T03:27:19;1.30;99.90
5172;DHT22;2605;49.770;9.868;2023-11-22T03:29:47;1.30;99.90
5172;DHT22;2605;49.770;9.868;2023-11-22T03:32:12;1.20;99.90
5172;DHT22;2605;49.770;9.868;2023-11-22T03:34:38;1.10;99.90
5172;DHT22;2605;49.770;9.868;2023-11-22T03:37:04;1.00;99.90
5172;DHT22;2605;49.770;9.868;2023-11-22T03:39:29;1.00;99.90
5172;DHT22;2605;49.770;9.868;2023-11-22T03:41:55;1.00;99.90
5172;DHT22;2605;49.770;9.868;2023-11-22T03:44:20;0.80;99.90
5172;DHT22;2605;49.770;9.868;2023-11-22T03:46:46;0.70;99.90
5172;DHT22;2605;49.770;9.868;2023-11-22T03:49:11;0.70;99.90
5172;DHT22;2605;49.770;9.868;2023-11-22T03:51:38;0.60;99.90
5172;DHT22;2605;49.770;9.868;2023-11-22T03:54:04;0.60;99.90
5172;DHT22;2605;49.770;9.868;2023-11-22T03:56:30;0.50;99.90
5172;DHT22;2605;49.770;9.868;2023-11-22T03:58:56;0.40;99.90
5172;DHT22;2605;49.770;9.868;2023-11-22T04:01:21;0.40;99.90
5172;DHT22;2605;49.770;9.868;2023-11-22T04:03:47;0.30;99.90
5172;DHT22;2605;49.770;9.868;2023-11-22T04:06:14;0.30;99.90
5172;DHT22;2605;49.770;9.868;2023-11-22T04:08:41;0.20;99.90
5172;DHT22;2605;49.770;9.868;2023-11-22T04:11:09;0.20;99.90
5172;DHT22;2605;49.770;9.868;2023-11-22T04:13:35;0.10;99.90
5172;DHT22;2605;49.770;9.868;2023-11-22T04:16:00;0.10;99.90
5172;DHT22;2605;49.770;9.868;2023-11-22T04:18:26;0.00;99.90
5172;DHT22;2605;49.770;9.868;2023-11-22T04:20:52;-0.10;99.90
5172;DHT22;2605;49.770;9.868;2023-11-22T04:23:17;-0.20;99.90
5172;DHT22;2605;49.770;9.868;2023-11-22T04:25:43;-0.20;99.90
5172;DHT22;2605;49.770;9.868;2023-11-22T04:28:09;-0.20;99.90
5172;DHT22;2605;49.770;9.868;2023-11-22T04:30:38;-0.20;99.90
5172;DHT22;2605;49.770;9.868;2023-11-22T04:33:03;-0.20;99.90
5172;DHT22;2605;49.770;9.868;2023-11-22T04:35:29;-0.30;99.90
5172;DHT22;2605;49.770;9.868;2023-11-22T04:37:54;-0.40;99.90
5172;DHT22;2605;49.770;9.868;2023-11-22T04:40:20;-0.40;99.90
5172;DHT22;2605;49.770;9.868;2023-11-22T04:42:46;-0.50;99.90
5172;DHT22;2605;49.770;9.868;2023-11-22T04:45:12;-0.50;99.90
5172;DHT22;2605;49.770;9.868;2023-11-22T04:47:38;-0.50;99.90
5172;DHT22;2605;49.770;9.868;2023-11-22T04:50:04;-0.50;99.90
5172;DHT22;2605;49.770;9.868;2023-11-22T04:52:30;-0.50;99.90
5172;DHT22;2605;49.770;9.868;2023-11-22T04:54:56;-0.50;99.90
5172;DHT22;2605;49.770;9.868;2023-11-22T04:57:21;-0.60;99.90
5172;DHT22;2605;49.770;9.868;2023-11-22T04:59:47;-0.60;99.90
5172;DHT22;2605;49.770;9.868;2023-11-22T05:02:12;-0.60;99.90
5172;DHT22;2605;49.770;9.868;2023-11-22T05:04:38;-0.60;99.90
5172;DHT22;2605;49.770;9.868;2023-11-22T05:07:03;-0.60;99.90
5172;DHT22;2605;49.770;9.868;2023-11-22T05:09:29;-0.60;99.90
5172;DHT22;2605;49.770;9.868;2023-11-22T05:11:54;-0.50;99.90
5172;DHT22;2605;49.770;9.868;2023-11-22T05:14:20;-0.50;99.90
5172;DHT22;2605;49.770;9.868;2023-11-22T05:16:46;-0.50;99.90
5172;DHT22;2605;49.770;9.868;2023-11-22T05:19:11;-0.50;99.90
5172;DHT22;2605;49.770;9.868;2023-11-22T05:21:37;-0.50;99.90
5172;DHT22;2605;49.770;9.868;2023-11-22T05:24:02;-0.50;99.90
5172;DHT22;2605;49.770;9.868;2023-11-22T05:26:28;-0.40;99.90
5172;DHT22;2605;49.770;9.868;2023-11-22T05:28:54;-0.50;99.90
5172;DHT22;2605;49.770;9.868;2023-11-22T05:31:22;-0.40;99.90
5172;DHT22;2605;49.770;9.868;2023-11-22T05:33:48;-0.40;99.90
5172;DHT22;2605;49.770;9.868;2023-11-22T05:36:13;-0.40;99.90
5172;DHT22;2605;49.770;9.868;2023-11-22T05:38:42;-0.40;99.90
5172;DHT22;2605;49.770;9.868;2023-11-22T05:41:08;-0.40;99.90
5172;DHT22;2605;49.770;9.868;2023-11-22T05:43:33;-0.40;99.90
5172;DHT22;2605;49.770;9.868;2023-11-22T05:46:05;-0.40;99.90
5172;DHT22;2605;49.770;9.868;2023-11-22T05:48:30;-0.40;99.90
5172;DHT22;2605;49.770;9.868;2023-11-22T05:50:56;-0.40;99.90
5172;DHT22;2605;49.770;9.868;2023-11-22T05:53:21;-0.40;99.90
5172;DHT22;2605;49.770;9.868;2023-11-22T05:55:49;-0.40;99.90
5172;DHT22;2605;49.770;9.868;2023-11-22T05:58:15;-0.40;99.90
5172;DHT22;2605;49.770;9.868;2023-11-22T06:00:44;-0.40;99.90
5172;DHT22;2605;49.770;9.868;2023-11-22T06:03:10;-0.40;99.90
5172;DHT22;2605;49.770;9.868;2023-11-22T06:05:39;-0.30;99.90
5172;DHT22;2605;49.770;9.868;2023-11-22T06:08:05;-0.40;99.90
5172;DHT22;2605;49.770;9.868;2023-11-22T06:10:31;-0.30;99.90
5172;DHT22;2605;49.770;9.868;2023-11-22T06:12:57;-0.30;99.90
5172;DHT22;2605;49.770;9.868;2023-11-22T06:15:22;-0.30;99.90
5172;DHT22;2605;49.770;9.868;2023-11-22T06:17:48;-0.30;99.90
5172;DHT22;2605;49.770;9.868;2023-11-22T06:20:15;-0.30;99.90
5172;DHT22;2605;49.770;9.868;2023-11-22T06:22:41;-0.30;99.90
5172;DHT22;2605;49.770;9.868;2023-11-22T06:25:13;-0.30;99.90
5172;DHT22;2605;49.770;9.868;2023-11-22T06:27:38;-0.20;99.90
5172;DHT22;2605;49.770;9.868;2023-11-22T06:30:05;-0.20;99.90
5172;DHT22;2605;49.770;9.868;2023-11-22T06:32:34;-0.20;99.90
5172;DHT22;2605;49.770;9.868;2023-11-22T06:35:00;-0.10;99.90
5172;DHT22;2605;49.770;9.868;2023-11-22T06:37:25;-0.10;99.90
5172;DHT22;2605;49.770;9.868;2023-11-22T06:39:51;-0.10;99.90
5172;DHT22;2605;49.770;9.868;2023-11-22T06:42:17;-0.10;99.90
5172;DHT22;2605;49.770;9.868;2023-11-22T06:44:43;0.00;99.90
5172;DHT22;2605;49.770;9.868;2023-11-22T06:47:08;0.00;99.90
5172;DHT22;2605;49.770;9.868;2023-11-22T06:49:34;0.00;99.90
5172;DHT22;2605;49.770;9.868;2023-11-22T06:52:00;0.00;99.90
5172;DHT22;2605;49.770;9.868;2023-11-22T06:54:26;0.00;99.90
5172;DHT22;2605;49.770;9.868;2023-11-22T06:56:51;0.00;99.90
5172;DHT22;2605;49.770;9.868;2023-11-22T06:59:17;0.00;99.90
5172;DHT22;2605;49.770;9.868;2023-11-22T07:01:44;0.00;99.90
5172;DHT22;2605;49.770;9.868;2023-11-22T07:04:09;0.00;99.90
5172;DHT22;2605;49.770;9.868;2023-11-22T07:06:35;0.10;99.90
5172;DHT22;2605;49.770;9.868;2023-11-22T07:09:03;0.00;99.90
5172;DHT22;2605;49.770;9.868;2023-11-22T07:11:28;0.00;99.90
5172;DHT22;2605;49.770;9.868;2023-11-22T07:13:56;0.00;99.90
5172;DHT22;2605;49.770;9.868;2023-11-22T07:16:23;0.00;99.90
5172;DHT22;2605;49.770;9.868;2023-11-22T07:18:49;-0.10;99.90
5172;DHT22;2605;49.770;9.868;2023-11-22T07:21:15;0.00;99.90
5172;DHT22;2605;49.770;9.868;2023-11-22T07:23:42;0.00;99.90
5172;DHT22;2605;49.770;9.868;2023-11-22T07:26:07;0.00;99.90
5172;DHT22;2605;49.770;9.868;2023-11-22T07:28:33;0.00;99.90
5172;DHT22;2605;49.770;9.868;2023-11-22T07:31:01;0.00;99.90
5172;DHT22;2605;49.770;9.868;2023-11-22T07:33:27;0.00;99.90
5172;DHT22;2605;49.770;9.868;2023-11-22T07:35:52;0.10;99.90
5172;DHT22;2605;49.770;9.868;2023-11-22T07:38:19;0.00;99.90
5172;DHT22;2605;49.770;9.868;2023-11-22T07:40:45;0.10;99.90
5172;DHT22;2605;49.770;9.868;2023-11-22T07:43:10;0.10;99.90
5172;DHT22;2605;49.770;9.868;2023-11-22T07:45:36;0.20;99.90
5172;DHT22;2605;49.770;9.868;2023-11-22T07:48:03;0.30;99.90
5172;DHT22;2605;49.770;9.868;2023-11-22T07:50:29;0.30;99.90
5172;DHT22;2605;49.770;9.868;2023-11-22T07:52:55;0.40;99.90
5172;DHT22;2605;49.770;9.868;2023-11-22T07:55:21;0.40;99.90
5172;DHT22;2605;49.770;9.868;2023-11-22T07:57:48;0.40;99.90
5172;DHT22;2605;49.770;9.868;2023-11-22T08:00:14;0.50;99.90
5172;DHT22;2605;49.770;9.868;2023-11-22T08:02:47;0.40;99.90
5172;DHT22;2605;49.770;9.868;2023-11-22T08:05:13;0.40;99.90
5172;DHT22;2605;49.770;9.868;2023-11-22T08:07:43;0.30;99.90
5172;DHT22;2605;49.770;9.868;2023-11-22T08:10:11;0.40;99.90
5172;DHT22;2605;49.770;9.868;2023-11-22T08:12:44;0.40;99.90
5172;DHT22;2605;49.770;9.868;2023-11-22T08:15:10;0.40;99.90
5172;DHT22;2605;49.770;9.868;2023-11-22T08:17:38;0.50;99.90
5172;DHT22;2605;49.770;9.868;2023-11-22T08:20:05;0.50;99.90
5172;DHT22;2605;49.770;9.868;2023-11-22T08:22:31;0.40;99.90
5172;DHT22;2605;49.770;9.868;2023-11-22T08:25:02;0.40;99.90
5172;DHT22;2605;49.770;9.868;2023-11-22T08:27:28;0.50;99.90
5172;DHT22;2605;49.770;9.868;2023-11-22T08:29:54;0.50;99.90
5172;DHT22;2605;49.770;9.868;2023-11-22T08:32:19;0.60;99.90
5172;DHT22;2605;49.770;9.868;2023-11-22T08:34:51;0.80;99.90
5172;DHT22;2605;49.770;9.868;2023-11-22T08:37:17;0.90;99.90
5172;DHT22;2605;49.770;9.868;2023-11-22T08:39:42;0.90;99.90
5172;DHT22;2605;49.770;9.868;2023-11-22T08:42:08;0.90;99.90
5172;DHT22;2605;49.770;9.868;2023-11-22T08:44:36;0.90;99.90
5172;DHT22;2605;49.770;9.868;2023-11-22T08:47:02;0.90;99.90
5172;DHT22;2605;49.770;9.868;2023-11-22T08:49:28;0.80;99.90
5172;DHT22;2605;49.770;9.868;2023-11-22T08:51:54;0.90;99.90
5172;DHT22;2605;49.770;9.868;2023-11-22T08:54:20;1.10;99.90
5172;DHT22;2605;49.770;9.868;2023-11-22T08:56:45;1.10;99.90
5172;DHT22;2605;49.770;9.868;2023-11-22T08:59:12;1.00;99.90
5172;DHT22;2605;49.770;9.868;2023-11-22T09:01:38;1.10;99.90
5172;DHT22;2605;49.770;9.868;2023-11-22T09:04:03;1.10;99.90
5172;DHT22;2605;49.770;9.868;2023-11-22T09:06:29;1.10;99.90
5172;DHT22;2605;49.770;9.868;2023-11-22T09:08:55;1.20;99.90
5172;DHT22;2605;49.770;9.868;2023-11-22T09:11:21;1.30;99.90
5172;DHT22;2605;49.770;9.868;2023-11-22T09:13:48;1.40;99.90
5172;DHT22;2605;49.770;9.868;2023-11-22T09:16:15;1.40;99.90
5172;DHT22;2605;49.770;9.868;2023-11-22T09:18:42;1.50;99.90
5172;DHT22;2605;49.770;9.868;2023-11-22T09:21:08;1.60;99.90
5172;DHT22;2605;49.770;9.868;2023-11-22T09:23:35;1.70;99.90
5172;DHT22;2605;49.770;9.868;2023-11-22T09:26:02;1.80;99.90
5172;DHT22;2605;49.770;9.868;2023-11-22T09:28:28;1.90;99.90
5172;DHT22;2605;49.770;9.868;2023-11-22T09:30:53;1.80;99.90
5172;DHT22;2605;49.770;9.868;2023-11-22T09:33:26;1.90;99.90
5172;DHT22;2605;49.770;9.868;2023-11-22T09:35:52;1.80;99.90
5172;DHT22;2605;49.770;9.868;2023-11-22T09:38:17;1.90;99.90
5172;DHT22;2605;49.770;9.868;2023-11-22T09:40:48;1.70;99.90
5172;DHT22;2605;49.770;9.868;2023-11-22T09:43:16;1.50;99.90
5172;DHT22;2605;49.770;9.868;2023-11-22T09:45:46;1.30;99.90
5172;DHT22;2605;49.770;9.868;2023-11-22T09:48:16;1.20;99.90
5172;DHT22;2605;49.770;9.868;2023-11-22T09:53:28;1.20;99.90
5172;DHT22;2605;49.770;9.868;2023-11-22T09:55:57;1.10;99.90
5172;DHT22;2605;49.770;9.868;2023-11-22T09:58:23;1.20;99.90
5172;DHT22;2605;49.770;9.868;2023-11-22T10:00:52;1.30;99.90
5172;DHT22;2605;49.770;9.868;2023-11-22T10:03:19;1.60;99.90
5172;DHT22;2605;49.770;9.868;2023-11-22T10:05:45;1.80;99.90
5172;DHT22;2605;49.770;9.868;2023-11-22T10:08:11;2.10;99.90
5172;DHT22;2605;49.770;9.868;2023-11-22T10:10:37;2.40;99.90
5172;DHT22;2605;49.770;9.868;2023-11-22T10:13:03;2.70;99.90
5172;DHT22;2605;49.770;9.868;2023-11-22T10:15:29;3.00;99.90
5172;DHT22;2605;49.770;9.868;2023-11-22T10:17:56;3.20;99.90
5172;DHT22;2605;49.770;9.868;2023-11-22T10:23:00;3.40;99.90
5172;DHT22;2605;49.770;9.868;2023-11-22T10:25:26;3.80;99.90
5172;DHT22;2605;49.770;9.868;2023-11-22T10:27:52;4.00;99.90
5172;DHT22;2605;49.770;9.868;2023-11-22T10:30:18;4.10;99.90
5172;DHT22;2605;49.770;9.868;2023-11-22T10:32:45;4.10;99.90
5172;DHT22;2605;49.770;9.868;2023-11-22T10:35:11;4.00;99.90
5172;DHT22;2605;49.770;9.868;2023-11-22T10:37:41;4.00;99.90
5172;DHT22;2605;49.770;9.868;2023-11-22T10:40:10;4.10;99.90
5172;DHT22;2605;49.770;9.868;2023-11-22T10:42:40;4.00;99.90
5172;DHT22;2605;49.770;9.868;2023-11-22T10:45:06;4.10;99.90
5172;DHT22;2605;49.770;9.868;2023-11-22T10:47:36;4.30;99.90
5172;DHT22;2605;49.770;9.868;2023-11-22T10:50:03;4.10;99.90
5172;DHT22;2605;49.770;9.868;2023-11-22T10:52:30;3.70;99.90
5172;DHT22;2605;49.770;9.868;2023-11-22T10:55:02;3.30;99.90
5172;DHT22;2605;49.770;9.868;2023-11-22T10:57:31;2.90;99.90
5172;DHT22;2605;49.770;9.868;2023-11-22T11:00:00;2.70;99.90
5172;DHT22;2605;49.770;9.868;2023-11-22T11:02:32;2.60;99.90
5172;DHT22;2605;49.770;9.868;2023-11-22T11:05:07;2.60;99.90
5172;DHT22;2605;49.770;9.868;2023-11-22T11:07:40;2.60;99.90
5172;DHT22;2605;49.770;9.868;2023-11-22T11:10:08;2.80;99.90
5172;DHT22;2605;49.770;9.868;2023-11-22T11:12:35;2.90;99.90
5172;DHT22;2605;49.770;9.868;2023-11-22T11:15:01;2.80;99.90
5172;DHT22;2605;49.770;9.868;2023-11-22T11:17:27;2.80;99.90
5172;DHT22;2605;49.770;9.868;2023-11-22T11:19:52;2.70;99.90
5172;DHT22;2605;49.770;9.868;2023-11-22T11:22:18;2.80;99.90
5172;DHT22;2605;49.770;9.868;2023-11-22T11:24:47;2.90;99.90
5172;DHT22;2605;49.770;9.868;2023-11-22T11:27:13;3.00;99.90
5172;DHT22;2605;49.770;9.868;2023-11-22T11:29:40;3.30;99.90
5172;DHT22;2605;49.770;9.868;2023-11-22T11:32:30;3.60;99.90
5172;DHT22;2605;49.770;9.868;2023-11-22T11:35:01;4.00;99.90
5172;DHT22;2605;49.770;9.868;2023-11-22T11:37:32;4.20;99.90
5172;DHT22;2605;49.770;9.868;2023-11-22T11:39:58;4.00;99.90
5172;DHT22;2605;49.770;9.868;2023-11-22T11:42:24;3.80;99.90
5172;DHT22;2605;49.770;9.868;2023-11-22T11:47:27;4.20;99.90
5172;DHT22;2605;49.770;9.868;2023-11-22T11:49:52;4.50;99.90
5172;DHT22;2605;49.770;9.868;2023-11-22T11:52:18;4.70;99.90
5172;DHT22;2605;49.770;9.868;2023-11-22T11:54:44;4.80;99.90
5172;DHT22;2605;49.770;9.868;2023-11-22T11:57:10;4.90;99.90
5172;DHT22;2605;49.770;9.868;2023-11-22T11:59:35;5.10;99.90
5172;DHT22;2605;49.770;9.868;2023-11-22T12:02:01;5.00;99.90
5172;DHT22;2605;49.770;9.868;2023-11-22T12:04:27;5.00;99.90
5172;DHT22;2605;49.770;9.868;2023-11-22T12:06:52;4.60;99.90
5172;DHT22;2605;49.770;9.868;2023-11-22T12:09:25;3.90;99.90
5172;DHT22;2605;49.770;9.868;2023-11-22T12:11:51;3.50;99.90
5172;DHT22;2605;49.770;9.868;2023-11-22T12:14:19;3.40;99.90
5172;DHT22;2605;49.770;9.868;2023-11-22T12:16:45;3.50;99.90
5172;DHT22;2605;49.770;9.868;2023-11-22T12:19:24;3.60;99.90
5172;DHT22;2605;49.770;9.868;2023-11-22T12:21:50;3.60;99.90
5172;DHT22;2605;49.770;9.868;2023-11-22T12:24:15;3.40;99.90
5172;DHT22;2605;49.770;9.868;2023-11-22T12:26:45;3.30;99.90
5172;DHT22;2605;49.770;9.868;2023-11-22T12:29:14;3.30;99.90
5172;DHT22;2605;49.770;9.868;2023-11-22T12:31:50;3.20;99.90
5172;DHT22;2605;49.770;9.868;2023-11-22T12:34:18;3.20;99.90
5172;DHT22;2605;49.770;9.868;2023-11-22T12:36:46;3.40;99.90
5172;DHT22;2605;49.770;9.868;2023-11-22T12:39:12;3.40;99.90
5172;DHT22;2605;49.770;9.868;2023-11-22T12:41:47;3.50;99.90
5172;DHT22;2605;49.770;9.868;2023-11-22T12:44:13;3.50;99.90
5172;DHT22;2605;49.770;9.868;2023-11-22T12:46:50;3.50;99.90
5172;DHT22;2605;49.770;9.868;2023-11-22T12:49:46;3.50;99.90
5172;DHT22;2605;49.770;9.868;2023-11-22T12:52:12;3.50;99.90
5172;DHT22;2605;49.770;9.868;2023-11-22T12:54:37;3.40;99.90
5172;DHT22;2605;49.770;9.868;2023-11-22T12:57:09;3.50;99.90
5172;DHT22;2605;49.770;9.868;2023-11-22T12:59:35;3.20;99.90
5172;DHT22;2605;49.770;9.868;2023-11-22T13:02:01;3.10;99.90
5172;DHT22;2605;49.770;9.868;2023-11-22T13:04:27;3.30;99.90
5172;DHT22;2605;49.770;9.868;2023-11-22T13:06:54;3.30;99.90
5172;DHT22;2605;49.770;9.868;2023-11-22T13:09:20;3.30;99.90
5172;DHT22;2605;49.770;9.868;2023-11-22T13:11:45;3.40;99.90
5172;DHT22;2605;49.770;9.868;2023-11-22T13:14:14;3.60;99.90
5172;DHT22;2605;49.770;9.868;2023-11-22T13:16:40;3.60;99.90
5172;DHT22;2605;49.770;9.868;2023-11-22T13:19:06;3.80;99.90
5172;DHT22;2605;49.770;9.868;2023-11-22T13:21:31;3.90;99.90
5172;DHT22;2605;49.770;9.868;2023-11-22T13:23:57;3.90;99.90
5172;DHT22;2605;49.770;9.868;2023-11-22T13:26:25;4.00;99.90
5172;DHT22;2605;49.770;9.868;2023-11-22T13:28:51;3.80;99.90
5172;DHT22;2605;49.770;9.868;2023-11-22T13:31:18;3.60;99.90
5172;DHT22;2605;49.770;9.868;2023-11-22T13:33:43;3.30;99.90
5172;DHT22;2605;49.770;9.868;2023-11-22T13:36:12;3.00;99.90
5172;DHT22;2605;49.770;9.868;2023-11-22T13:38:39;2.70;99.90
5172;DHT22;2605;49.770;9.868;2023-11-22T13:41:05;2.60;99.90
5172;DHT22;2605;49.770;9.868;2023-11-22T13:43:30;2.60;99.90
5172;DHT22;2605;49.770;9.868;2023-11-22T13:45:58;2.50;99.90
5172;DHT22;2605;49.770;9.868;2023-11-22T13:48:24;2.40;99.90
5172;DHT22;2605;49.770;9.868;2023-11-22T13:50:50;2.40;99.90
5172;DHT22;2605;49.770;9.868;2023-11-22T13:53:15;2.30;99.90
5172;DHT22;2605;49.770;9.868;2023-11-22T13:55:43;2.30;99.90
5172;DHT22;2605;49.770;9.868;2023-11-22T13:58:08;2.20;99.90
5172;DHT22;2605;49.770;9.868;2023-11-22T14:00:34;2.20;99.90
5172;DHT22;2605;49.770;9.868;2023-11-22T14:03:01;2.20;99.90
5172;DHT22;2605;49.770;9.868;2023-11-22T14:05:33;2.30;99.90
5172;DHT22;2605;49.770;9.868;2023-11-22T14:07:59;2.10;99.90
5172;DHT22;2605;49.770;9.868;2023-11-22T14:10:26;2.10;99.90
5172;DHT22;2605;49.770;9.868;2023-11-22T14:12:51;2.10;99.90
5172;DHT22;2605;49.770;9.868;2023-11-22T14:15:17;2.10;99.90
5172;DHT22;2605;49.770;9.868;2023-11-22T14:17:43;2.10;99.90
5172;DHT22;2605;49.770;9.868;2023-11-22T14:20:12;2.10;99.90
5172;DHT22;2605;49.770;9.868;2023-11-22T14:22:39;2.10;99.90
5172;DHT22;2605;49.770;9.868;2023-11-22T14:25:09;2.20;99.90
5172;DHT22;2605;49.770;9.868;2023-11-22T14:27:43;2.20;99.90
5172;DHT22;2605;49.770;9.868;2023-11-22T14:30:12;2.20;99.90
5172;DHT22;2605;49.770;9.868;2023-11-22T14:32:42;2.30;99.90
5172;DHT22;2605;49.770;9.868;2023-11-22T14:35:09;2.40;99.90
5172;DHT22;2605;49.770;9.868;2023-11-22T14:37:35;2.40;99.90
5172;DHT22;2605;49.770;9.868;2023-11-22T14:40:01;2.40;99.90
5172;DHT22;2605;49.770;9.868;2023-11-22T14:42:29;2.60;99.90
5172;DHT22;2605;49.770;9.868;2023-11-22T14:44:56;2.70;99.90
5172;DHT22;2605;49.770;9.868;2023-11-22T14:47:22;2.70;99.90
5172;DHT22;2605;49.770;9.868;2023-11-22T14:49:52;2.70;99.90
5172;DHT22;2605;49.770;9.868;2023-11-22T14:52:17;2.60;99.90
5172;DHT22;2605;49.770;9.868;2023-11-22T14:54:44;2.40;99.90
5172;DHT22;2605;49.770;9.868;2023-11-22T14:57:10;2.40;99.90
5172;DHT22;2605;49.770;9.868;2023-11-22T14:59:38;2.50;99.90
5172;DHT22;2605;49.770;9.868;2023-11-22T15:02:04;2.60;99.90
5172;DHT22;2605;49.770;9.868;2023-11-22T15:04:35;2.70;99.90
5172;DHT22;2605;49.770;9.868;2023-11-22T15:07:02;2.70;99.90
5172;DHT22;2605;49.770;9.868;2023-11-22T15:09:28;2.70;99.90
5172;DHT22;2605;49.770;9.868;2023-11-22T15:11:53;2.60;99.90
5172;DHT22;2605;49.770;9.868;2023-11-22T15:14:20;2.50;99.90
5172;DHT22;2605;49.770;9.868;2023-11-22T15:16:47;2.40;99.90
5172;DHT22;2605;49.770;9.868;2023-11-22T15:19:13;2.40;99.90
5172;DHT22;2605;49.770;9.868;2023-11-22T15:21:38;2.30;99.90
5172;DHT22;2605;49.770;9.868;2023-11-22T15:24:04;2.20;99.90
5172;DHT22;2605;49.770;9.868;2023-11-22T15:26:30;2.10;99.90
5172;DHT22;2605;49.770;9.868;2023-11-22T15:28:55;2.10;99.90
5172;DHT22;2605;49.770;9.868;2023-11-22T15:31:21;2.00;99.90
5172;DHT22;2605;49.770;9.868;2023-11-22T15:33:48;2.00;99.90
5172;DHT22;2605;49.770;9.868;2023-11-22T15:36:14;1.90;99.90
5172;DHT22;2605;49.770;9.868;2023-11-22T15:38:40;1.90;99.90
5172;DHT22;2605;49.770;9.868;2023-11-22T15:41:05;1.90;99.90
5172;DHT22;2605;49.770;9.868;2023-11-22T15:43:33;1.90;99.90
5172;DHT22;2605;49.770;9.868;2023-11-22T15:45:59;1.90;99.90
5172;DHT22;2605;49.770;9.868;2023-11-22T15:48:24;1.90;99.90
5172;DHT22;2605;49.770;9.868;2023-11-22T15:50:53;1.80;99.90
5172;DHT22;2605;49.770;9.868;2023-11-22T15:53:19;1.70;99.90
5172;DHT22;2605;49.770;9.868;2023-11-22T15:55:45;1.70;99.90
5172;DHT22;2605;49.770;9.868;2023-11-22T15:58:10;1.60;99.90
5172;DHT22;2605;49.770;9.868;2023-11-22T16:00:37;1.70;99.90
5172;DHT22;2605;49.770;9.868;2023-11-22T16:03:03;1.60;99.90
5172;DHT22;2605;49.770;9.868;2023-11-22T16:05:37;1.60;99.90
5172;DHT22;2605;49.770;9.868;2023-11-22T16:08:03;1.50;99.90
5172;DHT22;2605;49.770;9.868;2023-11-22T16:10:29;1.50;99.90
5172;DHT22;2605;49.770;9.868;2023-11-22T16:12:55;1.50;99.90
5172;DHT22;2605;49.770;9.868;2023-11-22T16:15:20;1.60;99.90
5172;DHT22;2605;49.770;9.868;2023-11-22T16:17:46;1.60;99.90